createdAt,value
2018-06-10T00:00:16.158Z,71.67
2018-06-10T00:01:22.138Z,71.34
2018-06-10T00:02:28.066Z,70.95
2018-06-10T00:03:34.007Z,71.11
2018-06-10T00:04:39.934Z,71.61
2018-06-10T00:05:45.939Z,71.40
2018-06-10T00:06:51.884Z,71.78
2018-06-10T00:07:57.842Z,71.72
2018-06-10T00:09:05.518Z,71.20
2018-06-10T00:10:11.537Z,71.12
2018-06-10T00:11:17.490Z,71.45
2018-06-10T00:12:23.428Z,70.51
2018-06-10T00:13:29.385Z,70.27
2018-06-10T00:14:35.384Z,70.35
2018-06-10T00:15:41.119Z,70.25
2018-06-10T00:16:47.082Z,69.64
2018-06-10T00:17:53.166Z,69.57
2018-06-10T00:18:59.111Z,70.30
2018-06-10T00:20:05.175Z,70.39
2018-06-10T00:21:11.122Z,69.74
2018-06-10T00:22:17.080Z,70.05
2018-06-10T00:23:23.109Z,69.92
2018-06-10T00:24:29.253Z,70.70
2018-06-10T00:25:35.220Z,70.37
2018-06-10T00:26:41.158Z,70.31
2018-06-10T00:27:47.090Z,69.73
2018-06-10T00:28:58.123Z,70.92
2018-06-10T00:30:04.397Z,71.06
2018-06-10T00:31:10.364Z,71.19
2018-06-10T00:32:16.295Z,70.71
2018-06-10T00:33:22.224Z,71.05
2018-06-10T00:34:28.170Z,70.32
2018-06-10T00:35:33.781Z,71.44
2018-06-10T00:36:39.725Z,69.84
2018-06-10T00:37:45.674Z,70.89
2018-06-10T00:38:51.606Z,71.11
2018-06-10T00:39:57.543Z,70.21
2018-06-10T00:41:03.489Z,70.89
2018-06-10T00:42:09.451Z,70.59
2018-06-10T00:43:15.454Z,69.33
2018-06-10T00:44:21.426Z,69.04
2018-06-10T00:45:27.346Z,69.03
2018-06-10T00:46:33.309Z,68.79
2018-06-10T00:47:39.275Z,69.35
2018-06-10T00:48:45.205Z,68.95
2018-06-10T00:49:51.158Z,68.62
2018-06-10T00:50:57.079Z,68.66
2018-06-10T00:52:03.050Z,68.72
2018-06-10T00:53:09.014Z,69.09
2018-06-10T00:54:14.948Z,69.05
2018-06-10T00:55:21.069Z,69.93
2018-06-10T00:56:43.724Z,69.78
2018-06-10T00:57:49.663Z,70.86
2018-06-10T00:58:55.653Z,70.53
2018-06-10T01:00:01.587Z,70.87
2018-06-10T01:01:07.227Z,70.68
2018-06-10T01:02:13.170Z,70.54
2018-06-10T01:03:19.135Z,71.47
2018-06-10T01:04:25.098Z,71.34
2018-06-10T01:05:31.087Z,71.27
2018-06-10T01:06:37.026Z,71.13
2018-06-10T01:07:42.960Z,70.22
2018-06-10T01:08:48.901Z,70.76
2018-06-10T01:09:55.004Z,70.56
2018-06-10T01:11:00.962Z,70.15
2018-06-10T01:12:07.038Z,70.16
2018-06-10T01:13:12.970Z,69.69
2018-06-10T01:14:18.998Z,70.71
2018-06-10T01:15:24.939Z,71.07
2018-06-10T01:16:30.905Z,71.16
2018-06-10T01:17:36.827Z,70.26
2018-06-10T01:18:42.738Z,71.41
2018-06-10T01:19:48.698Z,70.65
2018-06-10T01:20:54.655Z,70.65
2018-06-10T01:22:00.582Z,71.35
2018-06-10T01:23:06.558Z,70.31
2018-06-10T01:24:12.523Z,71.05
2018-06-10T01:25:18.497Z,70.59
2018-06-10T01:26:29.633Z,70.56
2018-06-10T01:27:35.578Z,71.04
2018-06-10T01:28:41.520Z,71.13
2018-06-10T01:29:47.470Z,71.30
2018-06-10T01:30:53.466Z,70.66
2018-06-10T01:31:59.415Z,71.30
2018-06-10T01:33:05.358Z,70.95
2018-06-10T01:34:11.289Z,71.47
2018-06-10T01:35:16.890Z,71.07
2018-06-10T01:36:22.464Z,70.93
2018-06-10T01:37:28.331Z,71.09
2018-06-10T01:38:34.252Z,70.65
2018-06-10T01:39:40.222Z,71.45
2018-06-10T01:40:46.186Z,70.30
2018-06-10T01:41:52.180Z,71.05
2018-06-10T01:42:58.115Z,70.27
2018-06-10T01:44:04.343Z,70.36
2018-06-10T01:45:10.360Z,71.36
2018-06-10T01:46:16.295Z,70.69
2018-06-10T01:47:22.256Z,71.29
2018-06-10T01:48:28.181Z,70.54
2018-06-10T01:49:34.126Z,70.68
2018-06-10T01:50:40.423Z,71.82
2018-06-10T01:51:46.378Z,72.00
2018-06-10T01:52:52.329Z,72.21
2018-06-10T01:53:58.704Z,72.45
2018-06-10T01:55:04.776Z,71.62
2018-06-10T01:56:11.076Z,72.58
2018-06-10T01:57:17.039Z,72.44
2018-06-10T01:58:23.006Z,72.27
2018-06-10T01:59:28.944Z,72.79
2018-06-10T02:00:34.902Z,72.56
2018-06-10T02:01:40.856Z,72.81
2018-06-10T02:02:46.825Z,73.00
2018-06-10T02:03:52.787Z,72.97
2018-06-10T02:04:58.715Z,72.35
2018-06-10T02:06:05.119Z,72.83
2018-06-10T02:07:11.074Z,72.79
2018-06-10T02:08:17.099Z,72.34
2018-06-10T02:09:23.038Z,72.71
2018-06-10T02:10:28.999Z,71.75
2018-06-10T02:11:35.108Z,72.22
2018-06-10T02:12:41.087Z,71.25
2018-06-10T02:13:46.997Z,72.01
2018-06-10T02:14:52.956Z,71.39
2018-06-10T02:15:58.883Z,72.13
2018-06-10T02:17:05.307Z,71.51
2018-06-10T02:18:11.695Z,72.30
2018-06-10T02:19:17.633Z,72.57
2018-06-10T02:20:23.579Z,71.85
2018-06-10T02:21:29.599Z,72.58
2018-06-10T02:22:35.352Z,72.76
2018-06-10T02:23:41.187Z,73.39
2018-06-10T02:24:46.781Z,73.90
2018-06-10T02:25:52.666Z,74.54
2018-06-10T02:26:58.609Z,75.24
2018-06-10T02:28:04.966Z,75.39
2018-06-10T02:29:10.892Z,74.59
2018-06-10T02:30:16.827Z,74.87
2018-06-10T02:31:22.746Z,75.48
2018-06-10T02:32:28.919Z,74.83
2018-06-10T02:33:35.329Z,76.04
2018-06-10T02:34:41.263Z,74.94
2018-06-10T02:35:47.216Z,75.01
2018-06-10T02:36:53.153Z,75.54
2018-06-10T02:37:59.095Z,74.83
2018-06-10T02:39:07.343Z,75.19
2018-06-10T02:40:13.267Z,74.78
2018-06-10T02:41:19.250Z,75.00
2018-06-10T02:42:25.231Z,74.78
2018-06-10T02:43:31.183Z,74.68
2018-06-10T02:44:37.110Z,74.62
2018-06-10T02:45:43.044Z,74.71
2018-06-10T02:46:49.007Z,74.48
2018-06-10T02:47:54.957Z,75.29
2018-06-10T02:49:01.118Z,74.76
2018-06-10T02:50:07.111Z,74.96
2018-06-10T02:51:13.080Z,75.24
2018-06-10T02:52:19.031Z,75.22
2018-06-10T02:53:24.986Z,75.24
2018-06-10T02:54:30.922Z,74.35
2018-06-10T02:55:36.861Z,74.94
2018-06-10T02:56:42.780Z,74.13
2018-06-10T02:57:48.728Z,74.72
2018-06-10T02:58:54.690Z,74.60
2018-06-10T03:00:00.684Z,74.12
2018-06-10T03:01:06.291Z,74.09
2018-06-10T03:02:12.142Z,73.96
2018-06-10T03:03:18.100Z,73.34
2018-06-10T03:04:24.051Z,74.33
2018-06-10T03:05:29.991Z,73.44
2018-06-10T03:06:35.907Z,74.26
2018-06-10T03:07:41.847Z,73.91
2018-06-10T03:08:47.788Z,74.73
2018-06-10T03:09:53.814Z,73.95
2018-06-10T03:10:59.749Z,74.69
2018-06-10T03:12:05.361Z,74.98
2018-06-10T03:13:11.215Z,74.35
2018-06-10T03:14:17.156Z,74.63
2018-06-10T03:15:23.114Z,75.04
2018-06-10T03:16:29.061Z,75.59
2018-06-10T03:17:34.986Z,74.98
2018-06-10T03:18:41.140Z,75.42
2018-06-10T03:19:47.082Z,74.91
2018-06-10T03:20:53.050Z,74.95
2018-06-10T03:21:58.974Z,75.07
2018-06-10T03:23:05.044Z,75.95
2018-06-10T03:24:10.990Z,75.02
2018-06-10T03:25:16.947Z,75.33
2018-06-10T03:26:22.879Z,75.28
2018-06-10T03:27:28.795Z,74.77
2018-06-10T03:28:34.704Z,74.70
2018-06-10T03:29:40.658Z,74.51
2018-06-10T03:30:46.594Z,74.77
2018-06-10T03:31:52.534Z,75.04
2018-06-10T03:32:58.664Z,74.86
2018-06-10T03:34:04.644Z,74.41
2018-06-10T03:35:10.567Z,75.10
2018-06-10T03:36:16.169Z,74.21
2018-06-10T03:37:22.041Z,73.99
2018-06-10T03:38:28.322Z,74.21
2018-06-10T03:39:34.318Z,73.90
2018-06-10T03:40:40.240Z,73.93
2018-06-10T03:41:46.189Z,74.02
2018-06-10T03:42:52.134Z,74.03
2018-06-10T03:43:58.066Z,73.74
2018-06-10T03:45:04.058Z,74.14
2018-06-10T03:46:10.004Z,73.29
2018-06-10T03:47:15.945Z,73.95
2018-06-10T03:48:21.890Z,73.99
2018-06-10T03:49:27.821Z,73.43
2018-06-10T03:50:33.820Z,73.09
2018-06-10T03:51:39.778Z,72.88
2018-06-10T03:52:45.794Z,72.89
2018-06-10T03:53:51.996Z,72.86
2018-06-10T03:54:57.948Z,73.75
2018-06-10T03:56:03.958Z,73.81
2018-06-10T03:57:09.884Z,72.74
2018-06-10T03:58:15.879Z,73.32
2018-06-10T03:59:21.825Z,73.67
2018-06-10T04:00:27.747Z,72.78
2018-06-10T04:01:33.732Z,73.91
2018-06-10T04:02:39.664Z,73.69
2018-06-10T04:03:45.640Z,73.77
2018-06-10T04:04:51.595Z,72.97
2018-06-10T04:05:57.519Z,73.19
2018-06-10T04:07:03.454Z,74.01
2018-06-10T04:08:09.399Z,73.87
2018-06-10T04:09:15.351Z,74.17
2018-06-10T04:10:21.327Z,74.34
2018-06-10T04:11:27.271Z,74.56
2018-06-10T04:12:33.712Z,73.85
2018-06-10T04:13:39.650Z,74.04
2018-06-10T04:14:45.598Z,73.73
2018-06-10T04:15:51.596Z,74.79
2018-06-10T04:16:57.548Z,73.77
2018-06-10T04:18:03.554Z,74.57
2018-06-10T04:19:09.524Z,74.48
2018-06-10T04:20:15.480Z,73.94
2018-06-10T04:21:21.115Z,74.69
2018-06-10T04:22:26.964Z,74.68
2018-06-10T04:23:32.906Z,74.18
2018-06-10T04:24:38.865Z,74.36
2018-06-10T04:25:44.778Z,74.04
2018-06-10T04:26:50.744Z,74.75
2018-06-10T04:27:56.700Z,73.88
2018-06-10T04:29:02.647Z,74.41
2018-06-10T04:30:08.589Z,74.39
2018-06-10T04:31:14.516Z,73.34
2018-06-10T04:32:20.142Z,73.26
2018-06-10T04:33:26.110Z,73.59
2018-06-10T04:34:32.366Z,73.33
2018-06-10T04:35:38.300Z,72.66
2018-06-10T04:36:43.950Z,73.24
2018-06-10T04:37:49.903Z,72.44
2018-06-10T04:38:55.931Z,73.11
2018-06-10T04:40:01.881Z,72.90
2018-06-10T04:41:07.843Z,72.45
2018-06-10T04:42:13.782Z,71.47
2018-06-10T04:43:19.779Z,71.37
2018-06-10T04:44:25.688Z,70.79
2018-06-10T04:45:31.708Z,70.79
2018-06-10T04:46:37.659Z,69.91
2018-06-10T04:47:43.710Z,69.46
2018-06-10T04:48:49.684Z,69.11
2018-06-10T04:49:55.887Z,69.53
2018-06-10T04:51:01.822Z,68.24
2018-06-10T04:52:07.760Z,68.71
2018-06-10T04:53:13.909Z,68.34
2018-06-10T04:54:19.858Z,66.85
2018-06-10T04:55:25.839Z,66.67
2018-06-10T04:56:31.801Z,66.20
2018-06-10T04:57:37.477Z,66.29
2018-06-10T04:58:43.370Z,65.94
2018-06-10T04:59:49.339Z,65.34
2018-06-10T05:00:55.327Z,65.55
2018-06-10T05:02:01.257Z,65.48
2018-06-10T05:03:07.233Z,64.29
2018-06-10T05:04:13.151Z,64.13
2018-06-10T05:05:19.118Z,64.75
2018-06-10T05:06:25.063Z,63.90
2018-06-10T05:07:31.148Z,63.47
2018-06-10T05:08:37.087Z,63.38
2018-06-10T05:09:43.089Z,63.34
2018-06-10T05:10:49.038Z,61.85
2018-06-10T05:11:55.058Z,61.96
2018-06-10T05:13:01.070Z,60.97
2018-06-10T05:14:07.021Z,61.03
2018-06-10T05:15:12.942Z,60.44
2018-06-10T05:16:18.919Z,60.20
2018-06-10T05:17:24.860Z,59.93
2018-06-10T05:18:30.800Z,59.79
2018-06-10T05:19:36.782Z,59.38
2018-06-10T05:20:42.882Z,58.12
2018-06-10T05:21:48.880Z,57.81
2018-06-10T05:22:54.827Z,57.69
2018-06-10T05:24:00.771Z,58.15
2018-06-10T05:25:06.752Z,58.10
2018-06-10T05:26:12.677Z,58.64
2018-06-10T05:27:18.419Z,57.89
2018-06-10T05:28:24.363Z,58.21
2018-06-10T05:29:30.367Z,56.89
2018-06-10T05:30:36.290Z,56.76
2018-06-10T05:31:42.258Z,57.80
2018-06-10T05:32:48.617Z,57.40
2018-06-10T05:33:54.568Z,56.76
2018-06-10T05:35:00.507Z,57.07
2018-06-10T05:36:06.201Z,55.94
2018-06-10T05:37:12.027Z,56.32
2018-06-10T05:38:18.056Z,55.64
2018-06-10T05:39:24.017Z,56.75
2018-06-10T05:40:29.967Z,56.87
2018-06-10T05:41:35.970Z,56.37
2018-06-10T05:42:44.831Z,56.82
2018-06-10T05:43:50.794Z,56.40
2018-06-10T05:44:56.774Z,56.42
2018-06-10T05:46:02.818Z,55.47
2018-06-10T05:47:08.769Z,56.30
2018-06-10T05:48:14.718Z,55.90
2018-06-10T05:49:20.694Z,56.07
2018-06-10T05:50:26.627Z,55.93
2018-06-10T05:51:32.434Z,55.75
2018-06-10T05:52:38.402Z,55.90
2018-06-10T05:53:44.096Z,54.93
2018-06-10T05:54:50.398Z,55.93
2018-06-10T05:55:56.396Z,55.56
2018-06-10T05:57:02.446Z,55.67
2018-06-10T05:58:08.462Z,56.41
2018-06-10T05:59:14.403Z,55.86
2018-06-10T06:00:20.354Z,54.94
2018-06-10T06:01:26.314Z,55.97
2018-06-10T06:02:32.059Z,55.38
2018-06-10T06:03:38.016Z,55.50
2018-06-10T06:04:43.976Z,54.61
2018-06-10T06:05:49.955Z,55.44
2018-06-10T06:06:55.961Z,54.51
2018-06-10T06:08:01.923Z,54.26
2018-06-10T06:09:09.294Z,54.54
2018-06-10T06:10:15.254Z,53.74
2018-06-10T06:11:20.886Z,54.49
2018-06-10T06:12:26.749Z,54.02
2018-06-10T06:13:32.678Z,53.40
2018-06-10T06:14:38.634Z,54.21
2018-06-10T06:15:44.726Z,53.94
2018-06-10T06:16:50.672Z,54.53
2018-06-10T06:17:56.635Z,55.14
2018-06-10T06:19:02.600Z,54.39
2018-06-10T06:20:08.543Z,56.18
2018-06-10T06:21:14.481Z,56.27
2018-06-10T06:22:20.408Z,55.44
2018-06-10T06:23:26.313Z,56.08
2018-06-10T06:24:32.239Z,56.24
2018-06-10T06:25:38.181Z,56.10
2018-06-10T06:26:44.150Z,55.08
2018-06-10T06:27:50.429Z,54.63
2018-06-10T06:28:56.380Z,54.35
2018-06-10T06:30:02.323Z,53.93
2018-06-10T06:31:08.292Z,54.10
2018-06-10T06:32:14.213Z,53.50
2018-06-10T06:33:19.926Z,52.87
2018-06-10T06:34:25.902Z,52.64
2018-06-10T06:35:32.078Z,52.35
2018-06-10T06:36:38.038Z,51.47
2018-06-10T06:37:44.007Z,52.10
2018-06-10T06:38:49.956Z,50.22
2018-06-10T06:39:55.907Z,50.15
2018-06-10T06:41:01.992Z,48.14
2018-06-10T06:42:08.028Z,47.82
2018-06-10T06:43:14.211Z,46.93
2018-06-10T06:44:20.181Z,46.48
2018-06-10T06:45:26.191Z,47.37
2018-06-10T06:46:32.647Z,47.25
2018-06-10T06:47:38.642Z,46.25
2018-06-10T06:48:44.624Z,46.05
2018-06-10T06:49:50.639Z,46.38
2018-06-10T06:50:56.635Z,45.87
2018-06-10T06:52:02.603Z,45.99
2018-06-10T06:53:08.594Z,45.77
2018-06-10T06:54:14.341Z,46.28
2018-06-10T06:55:20.313Z,46.55
2018-06-10T06:56:26.280Z,46.07
2018-06-10T06:57:32.253Z,46.41
2018-06-10T06:58:38.248Z,46.36
2018-06-10T06:59:44.182Z,45.43
2018-06-10T07:00:50.209Z,45.90
2018-06-10T07:01:56.136Z,45.11
2018-06-10T07:03:02.082Z,44.45
2018-06-10T07:04:08.113Z,43.21
2018-06-10T07:05:14.074Z,43.22
2018-06-10T07:06:20.077Z,43.21
2018-06-10T07:07:26.026Z,43.25
2018-06-10T07:08:31.954Z,43.22
2018-06-10T07:09:37.922Z,43.23
2018-06-10T07:10:43.850Z,42.41
2018-06-10T07:11:49.820Z,42.82
2018-06-10T07:12:55.783Z,41.97
2018-06-10T07:14:01.717Z,42.24
2018-06-10T07:15:07.683Z,42.60
2018-06-10T07:16:13.629Z,42.09
2018-06-10T07:17:19.593Z,41.17
2018-06-10T07:18:25.578Z,41.89
2018-06-10T07:19:31.533Z,42.07
2018-06-10T07:20:37.487Z,42.32
2018-06-10T07:21:43.447Z,41.80
2018-06-10T07:22:49.474Z,42.35
2018-06-10T07:23:55.419Z,42.10
2018-06-10T07:25:01.351Z,42.29
2018-06-10T07:26:07.284Z,41.75
2018-06-10T07:27:13.240Z,40.96
2018-06-10T07:28:19.162Z,41.36
2018-06-10T07:29:25.107Z,42.17
2018-06-10T07:30:31.072Z,42.46
2018-06-10T07:31:37.193Z,42.55
2018-06-10T07:32:43.102Z,42.34
2018-06-10T07:33:49.072Z,42.48
2018-06-10T07:34:55.023Z,42.88
2018-06-10T07:36:00.953Z,42.78
2018-06-10T07:37:06.949Z,42.23
2018-06-10T07:38:13.066Z,43.38
2018-06-10T07:39:19.087Z,43.23
2018-06-10T07:40:25.030Z,43.46
2018-06-10T07:41:30.956Z,44.50
2018-06-10T07:42:36.882Z,43.90
2018-06-10T07:43:42.943Z,44.27
2018-06-10T07:44:48.938Z,44.25
2018-06-10T07:45:54.878Z,45.39
2018-06-10T07:47:00.791Z,44.80
2018-06-10T07:48:06.929Z,46.00
2018-06-10T07:49:13.098Z,45.34
2018-06-10T07:50:19.127Z,46.46
2018-06-10T07:51:25.107Z,46.53
2018-06-10T07:52:31.038Z,45.62
2018-06-10T07:53:36.994Z,46.60
2018-06-10T07:54:42.959Z,46.54
2018-06-10T07:55:48.963Z,45.90
2018-06-10T07:56:54.897Z,46.46
2018-06-10T07:58:01.213Z,46.19
2018-06-10T07:59:07.225Z,46.13
2018-06-10T08:00:13.185Z,46.30
2018-06-10T08:01:19.191Z,45.56
2018-06-10T08:02:25.452Z,46.14
2018-06-10T08:03:31.167Z,46.13
2018-06-10T08:04:37.010Z,45.82
2018-06-10T08:05:42.950Z,46.03
2018-06-10T08:06:48.894Z,45.27
2018-06-10T08:07:54.842Z,45.24
2018-06-10T08:09:00.814Z,44.84
2018-06-10T08:10:07.111Z,44.92
2018-06-10T08:11:13.067Z,45.34
2018-06-10T08:12:19.116Z,44.33
2018-06-10T08:13:25.055Z,44.09
2018-06-10T08:14:31.028Z,44.29
2018-06-10T08:15:36.971Z,44.44
2018-06-10T08:16:42.927Z,43.95
2018-06-10T08:17:48.961Z,43.10
2018-06-10T08:18:54.886Z,42.75
2018-06-10T08:20:00.800Z,43.30
2018-06-10T08:21:06.787Z,42.37
2018-06-10T08:22:12.758Z,41.69
2018-06-10T08:23:18.710Z,42.24
2018-06-10T08:24:24.681Z,42.10
2018-06-10T08:25:31.060Z,40.96
2018-06-10T08:26:36.998Z,41.70
2018-06-10T08:27:42.979Z,41.86
2018-06-10T08:28:49.304Z,41.49
2018-06-10T08:29:55.246Z,41.57
2018-06-10T08:31:01.172Z,41.58
2018-06-10T08:32:07.106Z,41.27
2018-06-10T08:33:13.092Z,40.84
2018-06-10T08:34:19.043Z,40.25
2018-06-10T08:35:24.991Z,40.06
2018-06-10T08:36:31.130Z,39.74
2018-06-10T08:37:37.052Z,39.51
2018-06-10T08:38:43.008Z,39.11
2018-06-10T08:39:48.958Z,39.84
2018-06-10T08:40:54.914Z,39.28
2018-06-10T08:42:00.882Z,38.15
2018-06-10T08:43:06.819Z,38.83
2018-06-10T08:44:12.854Z,37.44
2018-06-10T08:45:18.798Z,37.95
2018-06-10T08:46:24.932Z,38.20
2018-06-10T08:47:30.902Z,39.00
2018-06-10T08:48:36.870Z,39.28
2018-06-10T08:49:42.799Z,39.51
2018-06-10T08:50:48.774Z,38.78
2018-06-10T08:51:54.722Z,39.18
2018-06-10T08:53:01.139Z,39.09
2018-06-10T08:54:07.178Z,38.85
2018-06-10T08:55:13.180Z,39.17
2018-06-10T08:56:19.175Z,38.83
2018-06-10T08:57:25.129Z,38.96
2018-06-10T08:58:31.107Z,38.47
2018-06-10T08:59:37.091Z,38.57
2018-06-10T09:00:43.101Z,37.44
2018-06-10T09:01:49.117Z,38.37
2018-06-10T09:02:55.117Z,38.28
2018-06-10T09:04:01.375Z,38.06
2018-06-10T09:05:07.702Z,38.66
2018-06-10T09:06:13.647Z,38.25
2018-06-10T09:07:19.675Z,38.74
2018-06-10T09:08:25.683Z,39.05
2018-06-10T09:09:32.487Z,38.19
2018-06-10T09:10:38.580Z,39.31
2018-06-10T09:11:46.182Z,38.69
2018-06-10T09:12:52.263Z,38.71
2018-06-10T09:13:58.212Z,39.28
2018-06-10T09:15:06.471Z,38.71
2018-06-10T09:16:12.429Z,39.02
2018-06-10T09:17:18.348Z,38.20
2018-06-10T09:18:25.829Z,37.63
2018-06-10T09:19:32.025Z,37.25
2018-06-10T09:20:38.647Z,38.06
2018-06-10T09:21:47.620Z,37.49
2018-06-10T09:22:54.375Z,38.38
2018-06-10T09:24:00.452Z,37.82
2018-06-10T09:25:07.090Z,38.44
2018-06-10T09:26:13.195Z,38.96
2018-06-10T09:27:19.602Z,38.63
2018-06-10T09:28:27.170Z,39.51
2018-06-10T09:29:33.353Z,38.88
2018-06-10T09:30:41.605Z,39.08
2018-06-10T09:31:48.909Z,40.11
2018-06-10T09:32:54.937Z,40.06
2018-06-10T09:34:01.369Z,39.44
2018-06-10T09:35:07.744Z,38.85
2018-06-10T09:36:15.740Z,39.26
2018-06-10T09:37:24.729Z,39.18
2018-06-10T09:38:32.067Z,39.21
2018-06-10T09:39:41.189Z,38.25
2018-06-10T09:40:47.476Z,38.73
2018-06-10T09:41:53.825Z,38.26
2018-06-10T09:42:59.791Z,38.39
2018-06-10T09:44:06.142Z,39.07
2018-06-10T09:45:13.182Z,39.13
2018-06-10T09:46:19.120Z,38.79
2018-06-10T09:47:25.310Z,38.52
2018-06-10T09:48:32.094Z,38.75
2018-06-10T09:49:39.855Z,39.74
2018-06-10T09:50:48.046Z,39.69
2018-06-10T09:51:55.562Z,39.55
2018-06-10T09:53:02.436Z,39.18
2018-06-10T09:54:09.437Z,39.85
2018-06-10T09:55:17.791Z,39.09
2018-06-10T09:56:25.817Z,39.56
2018-06-10T09:57:34.054Z,40.85
2018-06-10T09:58:41.591Z,39.79
2018-06-10T09:59:47.981Z,39.89
2018-06-10T10:00:55.995Z,40.92
2018-06-10T10:02:03.358Z,41.12
2018-06-10T10:03:11.235Z,41.49
2018-06-10T10:04:20.333Z,42.10
2018-06-10T10:05:27.439Z,40.98
2018-06-10T10:06:35.451Z,41.68
2018-06-10T10:07:43.472Z,42.42
2018-06-10T10:08:53.648Z,42.12
2018-06-10T10:10:01.589Z,42.25
2018-06-10T10:11:08.807Z,41.39
2018-06-10T10:12:15.971Z,42.78
2018-06-10T10:13:23.449Z,41.82
2018-06-10T10:14:33.272Z,41.08
2018-06-10T10:15:42.596Z,41.46
2018-06-10T10:16:50.386Z,42.23
2018-06-10T10:17:57.555Z,42.95
2018-06-10T10:19:04.809Z,42.11
2018-06-10T10:20:11.867Z,42.84
2018-06-10T10:21:18.731Z,42.10
2018-06-10T10:22:26.147Z,41.44
2018-06-10T10:23:34.362Z,41.99
2018-06-10T10:24:41.762Z,42.04
2018-06-10T10:25:48.858Z,41.90
2018-06-10T10:26:56.344Z,41.86
2018-06-10T10:28:03.554Z,41.53
2018-06-10T10:29:10.589Z,41.49
2018-06-10T10:30:18.599Z,41.15
2018-06-10T10:31:25.910Z,41.40
2018-06-10T10:32:33.820Z,41.65
2018-06-10T10:33:41.036Z,40.71
2018-06-10T10:34:48.388Z,41.00
2018-06-10T10:35:55.323Z,39.84
2018-06-10T10:37:02.110Z,41.13
2018-06-10T10:38:11.164Z,39.87
2018-06-10T10:39:20.135Z,39.97
2018-06-10T10:40:28.297Z,40.61
2018-06-10T10:41:35.541Z,40.65
2018-06-10T10:42:45.795Z,39.88
2018-06-10T10:43:53.388Z,40.02
2018-06-10T10:45:00.878Z,40.55
2018-06-10T10:46:08.994Z,40.94
2018-06-10T10:47:16.502Z,40.23
2018-06-10T10:48:26.387Z,41.06
2018-06-10T10:49:34.551Z,40.19
2018-06-10T10:50:41.966Z,39.18
2018-06-10T10:51:50.556Z,39.96
2018-06-10T10:53:01.401Z,39.58
2018-06-10T10:54:11.308Z,38.77
2018-06-10T10:55:19.648Z,39.22
2018-06-10T10:56:27.564Z,38.14
2018-06-10T10:57:35.007Z,38.72
2018-06-10T10:58:43.492Z,38.21
2018-06-10T10:59:52.252Z,38.40
2018-06-10T11:01:07.089Z,38.13
2018-06-10T11:02:16.350Z,37.28
2018-06-10T11:03:24.026Z,37.61
2018-06-10T11:04:32.142Z,37.31
2018-06-10T11:05:41.959Z,37.50
2018-06-10T11:06:50.553Z,37.51
2018-06-10T11:07:58.944Z,37.40
2018-06-10T11:09:09.721Z,36.67
2018-06-10T11:10:16.940Z,36.79
2018-06-10T11:11:24.395Z,36.88
2018-06-10T11:12:32.315Z,36.65
2018-06-10T11:13:40.347Z,36.88
2018-06-10T11:14:47.866Z,36.43
2018-06-10T11:15:55.153Z,36.14
2018-06-10T11:17:02.567Z,36.02
2018-06-10T11:18:11.945Z,36.29
2018-06-10T11:19:22.191Z,35.35
2018-06-10T11:20:29.522Z,35.88
2018-06-10T11:21:36.746Z,35.42
2018-06-10T11:22:43.910Z,34.91
2018-06-10T11:23:51.079Z,35.51
2018-06-10T11:24:58.555Z,34.96
2018-06-10T11:26:05.987Z,35.34
2018-06-10T11:27:12.848Z,35.25
2018-06-10T11:28:19.715Z,36.27
2018-06-10T11:29:27.191Z,35.95
2018-06-10T11:30:34.648Z,36.84
2018-06-10T11:31:41.808Z,36.79
2018-06-10T11:32:49.721Z,37.85
2018-06-10T11:33:56.921Z,37.68
2018-06-10T11:35:06.194Z,37.72
2018-06-10T11:36:13.738Z,38.14
2018-06-10T11:37:20.786Z,37.36
2018-06-10T11:38:27.984Z,37.79
2018-06-10T11:39:37.119Z,37.87
2018-06-10T11:40:44.188Z,37.19
2018-06-10T11:41:51.433Z,37.66
2018-06-10T11:42:58.454Z,36.82
2018-06-10T11:44:07.238Z,37.79
2018-06-10T11:45:14.512Z,38.04
2018-06-10T11:46:23.763Z,37.92
2018-06-10T11:47:30.901Z,37.23
2018-06-10T11:48:39.961Z,36.83
2018-06-10T11:49:47.671Z,36.58
2018-06-10T11:50:56.932Z,37.24
2018-06-10T11:52:05.007Z,36.77
2018-06-10T11:53:14.395Z,36.29
2018-06-10T11:54:21.606Z,36.33
2018-06-10T11:55:30.620Z,36.01
2018-06-10T11:56:38.333Z,36.46
2018-06-10T11:57:46.492Z,35.48
2018-06-10T11:58:54.220Z,36.06
2018-06-10T12:00:02.022Z,36.08
2018-06-10T12:01:09.633Z,35.99
2018-06-10T12:02:17.929Z,35.10
2018-06-10T12:03:26.790Z,35.12
2018-06-10T12:04:38.304Z,35.62
2018-06-10T12:05:46.902Z,36.79
2018-06-10T12:06:55.159Z,36.51
2018-06-10T12:08:03.231Z,35.90
2018-06-10T12:09:10.599Z,36.01
2018-06-10T12:10:18.550Z,36.59
2018-06-10T12:11:25.753Z,35.76
2018-06-10T12:12:34.090Z,36.52
2018-06-10T12:13:41.437Z,35.78
2018-06-10T12:14:49.442Z,35.79
2018-06-10T12:15:56.402Z,35.85
2018-06-10T12:17:04.241Z,35.78
2018-06-10T12:18:11.470Z,36.47
2018-06-10T12:19:19.416Z,35.99
2018-06-10T12:20:29.037Z,36.14
2018-06-10T12:21:36.179Z,35.79
2018-06-10T12:22:44.305Z,36.12
2018-06-10T12:23:51.947Z,35.89
2018-06-10T12:25:01.055Z,35.30
2018-06-10T12:26:08.553Z,34.77
2018-06-10T12:27:17.036Z,35.21
2018-06-10T12:28:25.517Z,35.56
2018-06-10T12:29:34.196Z,35.64
2018-06-10T12:30:41.512Z,35.43
2018-06-10T12:31:49.278Z,35.68
2018-06-10T12:32:56.968Z,35.70
2018-06-10T12:34:04.805Z,36.29
2018-06-10T12:35:11.940Z,37.09
2018-06-10T12:36:20.543Z,37.74
2018-06-10T12:37:27.714Z,38.04
2018-06-10T12:38:35.259Z,38.01
2018-06-10T12:39:42.372Z,38.49
2018-06-10T12:40:50.010Z,38.37
2018-06-10T12:41:58.655Z,38.88
2018-06-10T12:43:05.870Z,39.11
2018-06-10T12:44:17.343Z,38.34
2018-06-10T12:45:25.709Z,39.52
2018-06-10T12:46:32.956Z,38.86
2018-06-10T12:47:41.731Z,38.64
2018-06-10T12:48:48.794Z,39.48
2018-06-10T12:49:57.451Z,38.61
2018-06-10T12:51:04.735Z,38.31
2018-06-10T12:52:12.503Z,38.52
2018-06-10T12:53:20.261Z,38.60
2018-06-10T12:54:27.360Z,39.41
2018-06-10T12:55:35.193Z,39.40
2018-06-10T12:56:42.486Z,38.83
2018-06-10T12:57:49.607Z,39.84
2018-06-10T12:58:58.178Z,39.46
2018-06-10T13:00:07.366Z,39.83
2018-06-10T13:01:15.368Z,40.18
2018-06-10T13:02:24.800Z,40.17
2018-06-10T13:03:34.370Z,41.00
2018-06-10T13:04:42.515Z,42.02
2018-06-10T13:05:49.619Z,42.18
2018-06-10T13:06:57.669Z,42.27
2018-06-10T13:08:04.706Z,42.05
2018-06-10T13:09:12.265Z,42.47
2018-06-10T13:10:20.414Z,41.92
2018-06-10T13:11:27.487Z,42.30
2018-06-10T13:12:34.601Z,42.29
2018-06-10T13:13:41.691Z,42.08
2018-06-10T13:14:50.079Z,42.50
2018-06-10T13:15:58.606Z,42.40
2018-06-10T13:17:05.701Z,42.85
2018-06-10T13:18:13.831Z,42.88
2018-06-10T13:19:21.746Z,43.80
2018-06-10T13:20:28.737Z,43.81
2018-06-10T13:21:35.839Z,43.48
2018-06-10T13:22:43.079Z,42.94
2018-06-10T13:23:50.572Z,43.13
2018-06-10T13:24:58.476Z,42.58
2018-06-10T13:26:07.436Z,41.63
2018-06-10T13:27:17.446Z,41.41
2018-06-10T13:28:24.678Z,41.46
2018-06-10T13:29:31.485Z,40.84
2018-06-10T13:30:38.946Z,40.90
2018-06-10T13:31:46.460Z,40.99
2018-06-10T13:32:54.683Z,41.20
2018-06-10T13:34:02.145Z,41.01
2018-06-10T13:35:09.782Z,41.99
2018-06-10T13:36:19.277Z,41.65
2018-06-10T13:37:26.402Z,41.10
2018-06-10T13:38:36.974Z,41.08
2018-06-10T13:39:44.201Z,41.20
2018-06-10T13:40:52.354Z,41.51
2018-06-10T13:42:04.112Z,42.39
2018-06-10T13:43:11.396Z,42.71
2018-06-10T13:44:22.601Z,42.12
2018-06-10T13:45:30.760Z,42.41
2018-06-10T13:46:38.640Z,43.07
2018-06-10T13:47:45.949Z,42.33
2018-06-10T13:48:53.228Z,43.26
2018-06-10T13:50:00.604Z,42.39
2018-06-10T13:51:09.313Z,43.05
2018-06-10T13:52:18.463Z,43.13
2018-06-10T13:53:25.719Z,43.34
2018-06-10T13:54:32.921Z,43.61
2018-06-10T13:55:40.402Z,43.60
2018-06-10T13:56:48.441Z,43.42
2018-06-10T13:57:55.885Z,43.15
2018-06-10T13:59:04.379Z,43.87
2018-06-10T14:00:11.338Z,44.00
2018-06-10T14:01:19.651Z,43.14
2018-06-10T14:02:26.535Z,43.26
2018-06-10T14:03:34.922Z,42.90
2018-06-10T14:04:42.479Z,43.41
2018-06-10T14:05:50.579Z,43.96
2018-06-10T14:06:57.708Z,43.81
2018-06-10T14:08:04.961Z,43.96
2018-06-10T14:09:18.268Z,43.84
2018-06-10T14:10:25.948Z,43.77
2018-06-10T14:11:35.071Z,43.85
2018-06-10T14:12:43.083Z,43.40
2018-06-10T14:13:50.362Z,42.97
2018-06-10T14:14:57.564Z,43.67
2018-06-10T14:16:04.488Z,43.04
2018-06-10T14:17:11.672Z,43.84
2018-06-10T14:18:18.810Z,43.46